createdAt,value
2023-05-25T00:01:02.636Z,5.40
2023-05-25T00:03:49.545Z,4.75
2023-05-25T00:06:37.370Z,5.10
2023-05-25T00:09:24.705Z,5.40
2023-05-25T00:14:55.507Z,5.30
2023-05-25T00:17:40.976Z,5.43
2023-05-25T00:20:27.007Z,4.97
2023-05-25T00:23:12.473Z,5.10
2023-05-25T00:25:57.764Z,4.70
2023-05-25T00:28:43.232Z,5.13
2023-05-25T00:31:29.793Z,5.05
2023-05-25T00:34:14.963Z,4.95
2023-05-25T00:37:00.457Z,4.68
2023-05-25T00:39:45.918Z,4.85
2023-05-25T00:42:31.508Z,5.25
2023-05-25T00:45:18.138Z,5.22
2023-05-25T00:48:04.655Z,4.93
2023-05-25T00:50:54.436Z,5.03
2023-05-25T00:53:40.084Z,5.47
2023-05-25T00:56:30.503Z,4.72
2023-05-25T00:59:20.038Z,5.03
2023-05-25T01:02:11.323Z,4.75
2023-05-25T01:05:00.082Z,4.47
2023-05-25T01:07:47.157Z,4.82
2023-05-25T01:10:33.522Z,5.05
2023-05-25T01:13:21.059Z,4.68
2023-05-25T01:16:06.936Z,4.60
2023-05-25T01:18:53.871Z,4.22
2023-05-25T01:22:04.172Z,4.72
2023-05-25T01:24:53.736Z,4.32
2023-05-25T01:27:44.103Z,4.30
2023-05-25T01:30:31.022Z,4.60
2023-05-25T01:33:19.076Z,4.32
2023-05-25T01:36:06.325Z,4.53
2023-05-25T01:38:51.989Z,4.90
2023-05-25T01:41:37.176Z,4.65
2023-05-25T01:44:23.831Z,4.93
2023-05-25T01:47:17.056Z,4.65
2023-05-25T01:50:05.746Z,4.57
2023-05-25T01:53:03.574Z,4.53
2023-05-25T01:56:00.934Z,3.97
2023-05-25T01:58:48.778Z,4.35
2023-05-25T02:01:36.558Z,4.70
2023-05-25T02:04:22.747Z,4.50
2023-05-25T02:07:08.394Z,4.13
2023-05-25T02:09:53.861Z,4.57
2023-05-25T02:12:39.283Z,4.45
2023-05-25T02:15:24.763Z,4.00
2023-05-25T02:18:10.043Z,4.53
2023-05-25T02:20:55.887Z,4.40
2023-05-25T02:23:41.135Z,4.32
2023-05-25T02:26:26.631Z,4.35
2023-05-25T02:29:12.522Z,4.28
2023-05-25T02:31:58.413Z,4.57
2023-05-25T02:34:43.743Z,4.22
2023-05-25T02:37:30.380Z,4.45
2023-05-25T02:40:17.452Z,4.43
2023-05-25T02:43:02.578Z,3.97
2023-05-25T02:45:48.297Z,4.18
2023-05-25T02:48:33.790Z,4.43
2023-05-25T02:51:19.636Z,4.28
2023-05-25T02:54:05.454Z,4.18
2023-05-25T02:56:51.280Z,4.03
2023-05-25T02:59:37.342Z,3.90
2023-05-25T03:02:25.699Z,4.07
2023-05-25T03:05:11.449Z,3.88
2023-05-25T03:07:57.730Z,3.70
2023-05-25T03:10:43.188Z,4.07
2023-05-25T03:13:29.530Z,4.32
2023-05-25T03:16:15.422Z,4.05
2023-05-25T03:19:01.032Z,4.32
2023-05-25T03:21:47.499Z,3.95
2023-05-25T03:24:32.951Z,3.75
2023-05-25T03:27:20.767Z,4.15
2023-05-25T03:30:08.155Z,3.55
2023-05-25T03:32:53.899Z,3.88
2023-05-25T03:35:40.482Z,3.78
2023-05-25T03:38:26.513Z,4.03
2023-05-25T03:41:12.277Z,3.80
2023-05-25T03:43:57.532Z,4.22
2023-05-25T03:46:42.993Z,4.00
2023-05-25T03:49:28.481Z,3.58
2023-05-25T03:55:05.263Z,3.67
2023-05-25T03:57:50.483Z,3.35
2023-05-25T04:00:36.901Z,3.95
2023-05-25T04:03:22.760Z,3.53
2023-05-25T04:06:08.901Z,4.00
2023-05-25T04:08:54.318Z,3.75
2023-05-25T04:11:39.988Z,3.95
2023-05-25T04:14:26.061Z,3.80
2023-05-25T04:17:11.812Z,4.30
2023-05-25T04:19:57.470Z,4.13
2023-05-25T04:22:45.110Z,4.15
2023-05-25T04:25:32.245Z,3.63
2023-05-25T04:28:18.670Z,4.15
2023-05-25T04:31:33.278Z,3.60
2023-05-25T04:34:42.403Z,3.47
2023-05-25T04:37:36.998Z,4.15
2023-05-25T04:40:23.078Z,4.03
2023-05-25T04:43:09.962Z,3.75
2023-05-25T04:45:56.743Z,3.65
2023-05-25T04:48:42.432Z,3.65
2023-05-25T04:51:27.976Z,4.05
2023-05-25T04:54:13.421Z,4.20
2023-05-25T04:56:59.119Z,3.58
2023-05-25T04:59:44.356Z,3.88
2023-05-25T05:02:29.583Z,7.53
2023-05-25T05:08:30.032Z,6.75
2023-05-25T05:11:15.982Z,6.05
2023-05-25T05:14:01.794Z,6.20
2023-05-25T05:16:48.197Z,5.90
2023-05-25T05:19:34.366Z,5.63
2023-05-25T05:22:21.075Z,5.47
2023-05-25T05:25:07.797Z,5.28
2023-05-25T05:27:53.254Z,5.13
2023-05-25T05:30:46.682Z,4.50
2023-05-25T05:33:32.733Z,4.85
2023-05-25T05:39:05.508Z,4.57
2023-05-25T05:41:50.886Z,4.75
2023-05-25T05:44:37.047Z,4.50
2023-05-25T05:47:22.408Z,4.78
2023-05-25T05:50:08.407Z,4.18
2023-05-25T05:55:41.016Z,4.30
2023-05-25T05:58:26.905Z,4.45
2023-05-25T06:01:12.564Z,3.92
2023-05-25T06:03:59.616Z,4.50
2023-05-25T06:06:45.699Z,4.32
2023-05-25T06:09:31.366Z,3.97
2023-05-25T06:12:18.670Z,4.55
2023-05-25T06:15:04.761Z,4.22
2023-05-25T06:17:50.859Z,3.95
2023-05-25T06:20:36.623Z,5.20
2023-05-25T06:23:22.320Z,4.88
2023-05-25T06:26:07.714Z,9.60
2023-05-25T06:28:53.572Z,10.60
2023-05-25T06:31:38.860Z,9.05
2023-05-25T06:34:25.522Z,9.48
2023-05-25T06:37:10.983Z,8.65
2023-05-25T06:39:57.745Z,8.10
2023-05-25T06:42:43.805Z,7.15
2023-05-25T06:45:49.889Z,6.82
2023-05-25T06:48:36.042Z,6.28
2023-05-25T06:51:21.556Z,6.15
2023-05-25T06:54:08.709Z,5.93
2023-05-25T06:56:53.925Z,6.22
2023-05-25T06:59:39.078Z,6.20
2023-05-25T07:02:24.545Z,5.85
2023-05-25T07:05:10.076Z,5.50
2023-05-25T07:07:55.341Z,5.47
2023-05-25T07:10:40.640Z,5.90
2023-05-25T07:13:26.168Z,5.13
2023-05-25T07:16:11.489Z,5.75
2023-05-25T07:18:58.609Z,5.38
2023-05-25T07:21:45.452Z,5.63
2023-05-25T07:24:30.663Z,5.63
2023-05-25T07:27:16.524Z,6.28
2023-05-25T07:30:01.979Z,5.15
2023-05-25T07:32:47.230Z,5.05
2023-05-25T07:35:35.235Z,5.57
2023-05-25T07:38:20.862Z,5.63
2023-05-25T07:41:06.442Z,5.57
2023-05-25T07:43:52.373Z,5.30
2023-05-25T07:46:37.981Z,5.50
2023-05-25T07:49:23.321Z,5.25
2023-05-25T07:52:09.214Z,5.25
2023-05-25T07:54:55.077Z,5.22
2023-05-25T07:57:40.447Z,5.38
2023-05-25T08:00:25.676Z,5.10
2023-05-25T08:03:11.267Z,4.68
2023-05-25T08:05:56.640Z,5.40
2023-05-25T08:08:42.064Z,5.45
2023-05-25T08:11:27.662Z,5.05
2023-05-25T08:14:13.300Z,4.80
2023-05-25T08:16:58.555Z,5.25
2023-05-25T08:19:43.788Z,4.80
2023-05-25T08:22:28.968Z,4.88
2023-05-25T08:25:14.306Z,5.07
2023-05-25T08:27:59.602Z,4.80
2023-05-25T08:30:45.824Z,5.20
2023-05-25T08:33:31.655Z,5.03
2023-05-25T08:36:17.895Z,4.97
2023-05-25T08:39:04.658Z,5.03
2023-05-25T08:50:12.041Z,4.75
2023-05-25T08:52:57.864Z,4.45
2023-05-25T08:55:43.639Z,7.88
2023-05-25T08:58:34.307Z,5.03
2023-05-25T09:01:21.318Z,4.90
2023-05-25T09:04:06.854Z,5.35
2023-05-25T09:09:41.462Z,5.70
2023-05-25T09:12:28.879Z,4.95
2023-05-25T09:15:14.303Z,5.13
2023-05-25T09:17:59.902Z,5.43
2023-05-25T09:20:47.258Z,5.13
2023-05-25T09:23:34.056Z,5.50
2023-05-25T09:26:19.903Z,4.97
2023-05-25T09:29:05.358Z,5.30
2023-05-25T09:31:50.937Z,5.55
2023-05-25T09:34:36.147Z,5.35
2023-05-25T09:37:22.089Z,4.93
2023-05-25T09:40:09.215Z,5.05
2023-05-25T09:42:54.608Z,4.82
2023-05-25T09:45:40.263Z,4.40
2023-05-25T09:48:26.232Z,5.10
2023-05-25T09:51:12.038Z,4.75
2023-05-25T09:53:57.885Z,4.40
2023-05-25T09:56:43.824Z,4.57
2023-05-25T09:59:29.483Z,4.47
2023-05-25T10:02:16.203Z,4.32
2023-05-25T10:05:01.583Z,5.20
2023-05-25T10:07:48.397Z,4.85
2023-05-25T10:10:33.953Z,4.63
2023-05-25T10:13:24.734Z,5.05
2023-05-25T10:16:13.365Z,4.93
2023-05-25T10:19:06.979Z,4.80
2023-05-25T10:21:59.702Z,4.72
2023-05-25T10:24:55.053Z,4.90
2023-05-25T10:27:59.808Z,5.13
2023-05-25T10:30:45.965Z,4.57
2023-05-25T10:33:32.716Z,5.30
2023-05-25T10:36:20.104Z,5.00
2023-05-25T10:41:54.387Z,4.75
2023-05-25T10:44:42.077Z,5.05
2023-05-25T10:47:27.502Z,4.93
2023-05-25T10:50:19.709Z,9.52
2023-05-25T10:53:12.673Z,10.07
2023-05-25T10:56:02.041Z,8.80
2023-05-25T10:58:48.027Z,7.82
2023-05-25T11:01:49.269Z,7.55
2023-05-25T11:04:37.531Z,7.03
2023-05-25T11:07:23.008Z,7.00
2023-05-25T11:10:08.817Z,6.78
2023-05-25T11:12:54.022Z,7.22
2023-05-25T11:15:40.155Z,7.35
2023-05-25T11:18:37.879Z,7.00
2023-05-25T11:21:30.333Z,6.97
2023-05-25T11:24:18.778Z,7.35
2023-05-25T11:27:06.076Z,7.40
2023-05-25T11:29:52.238Z,6.85
2023-05-25T11:32:39.889Z,7.18
2023-05-25T11:35:26.647Z,6.55
2023-05-25T11:38:12.669Z,6.60
2023-05-25T11:40:58.398Z,6.70
2023-05-25T11:43:45.464Z,6.93
2023-05-25T11:46:33.088Z,6.60
2023-05-25T11:49:21.647Z,6.15
2023-05-25T11:52:07.370Z,6.97
2023-05-25T11:54:53.322Z,6.43
2023-05-25T11:57:40.396Z,6.22
2023-05-25T12:00:27.509Z,7.05
2023-05-25T12:03:33.533Z,6.68
2023-05-25T12:09:25.812Z,6.15
2023-05-25T12:12:11.254Z,5.97
2023-05-25T12:14:57.821Z,6.25
2023-05-25T12:17:45.309Z,10.98
2023-05-25T12:20:31.030Z,10.25
2023-05-25T12:23:16.478Z,10.50
2023-05-25T12:26:16.322Z,9.50
2023-05-25T12:29:02.745Z,8.95
2023-05-25T12:31:48.239Z,9.55
2023-05-25T12:34:33.828Z,8.90
2023-05-25T12:37:20.624Z,8.23
2023-05-25T12:40:17.583Z,8.32
2023-05-25T12:43:03.256Z,8.23
2023-05-25T12:45:49.099Z,8.05
2023-05-25T12:48:34.556Z,8.35
2023-05-25T12:51:20.088Z,8.23
2023-05-25T12:54:05.681Z,8.30
2023-05-25T12:56:55.172Z,8.10
2023-05-25T12:59:42.847Z,8.20
2023-05-25T13:02:29.275Z,7.93
2023-05-25T13:05:21.861Z,7.68
2023-05-25T13:08:07.464Z,7.82
2023-05-25T13:10:52.758Z,7.43
2023-05-25T13:13:38.035Z,7.38
2023-05-25T13:16:25.609Z,7.55
2023-05-25T13:19:11.403Z,7.82
2023-05-25T13:21:56.780Z,7.53
2023-05-25T13:24:42.099Z,7.68
2023-05-25T13:27:27.434Z,7.88
2023-05-25T13:30:13.033Z,7.20
2023-05-25T13:32:58.862Z,7.40
2023-05-25T13:35:58.724Z,7.30
2023-05-25T13:38:45.172Z,11.85
2023-05-25T13:41:31.659Z,9.77
2023-05-25T13:44:17.733Z,8.52
2023-05-25T13:47:03.746Z,9.55
2023-05-25T13:49:49.611Z,9.35
2023-05-25T13:52:36.925Z,9.77
2023-05-25T13:55:23.219Z,8.85
2023-05-25T13:58:09.311Z,8.63
2023-05-25T14:00:54.859Z,9.25
2023-05-25T14:03:40.744Z,8.57
2023-05-25T14:06:26.642Z,9.07
2023-05-25T14:09:12.896Z,8.75
2023-05-25T14:11:59.137Z,9.48
2023-05-25T14:14:44.328Z,9.63
2023-05-25T14:17:30.017Z,11.80
2023-05-25T14:20:20.902Z,12.40
2023-05-25T14:23:06.231Z,10.88
2023-05-25T14:25:51.705Z,10.60
2023-05-25T14:28:36.865Z,10.15
2023-05-25T14:31:22.269Z,10.30
2023-05-25T14:34:07.472Z,10.45
2023-05-25T14:36:52.928Z,10.18
2023-05-25T14:39:38.146Z,10.20
2023-05-25T14:42:23.272Z,10.27
2023-05-25T14:45:10.984Z,10.05
2023-05-25T14:48:08.315Z,9.43
2023-05-25T14:51:02.793Z,9.65
2023-05-25T14:53:48.237Z,9.80
2023-05-25T14:56:33.648Z,10.02
2023-05-25T14:59:19.379Z,9.50
2023-05-25T15:02:05.322Z,9.20
2023-05-25T15:04:51.058Z,8.93
2023-05-25T15:07:36.209Z,9.68
2023-05-25T15:10:21.511Z,8.90
2023-05-25T15:13:06.786Z,9.07
2023-05-25T15:15:55.996Z,9.65
2023-05-25T15:18:41.538Z,8.20
2023-05-25T15:21:26.770Z,8.07
2023-05-25T15:24:16.540Z,9.02
2023-05-25T15:27:04.988Z,8.20
2023-05-25T15:29:50.688Z,8.85
2023-05-25T15:32:35.874Z,8.15
2023-05-25T15:35:21.472Z,8.80
2023-05-25T15:38:06.696Z,8.40
2023-05-25T15:40:52.006Z,8.30
2023-05-25T15:43:37.462Z,7.78
2023-05-25T15:46:22.734Z,8.40
2023-05-25T15:49:11.489Z,7.82
2023-05-25T15:51:57.129Z,7.80
2023-05-25T15:54:42.333Z,8.10
2023-05-25T15:57:27.713Z,8.25
2023-05-25T16:00:13.706Z,8.60
2023-05-25T16:02:59.243Z,7.95
2023-05-25T16:05:45.378Z,8.43
2023-05-25T16:08:31.112Z,7.63
2023-05-25T16:11:17.079Z,7.70
2023-05-25T16:14:02.254Z,9.75
2023-05-25T16:16:48.297Z,7.45
2023-05-25T16:19:33.763Z,7.80
2023-05-25T16:22:19.506Z,7.88
2023-05-25T16:25:05.516Z,7.43
2023-05-25T16:27:50.915Z,7.40
2023-05-25T16:30:36.192Z,9.90
2023-05-25T16:33:21.666Z,9.80
2023-05-25T16:36:07.657Z,8.57
2023-05-25T16:38:52.838Z,8.63
2023-05-25T16:41:38.244Z,8.18
2023-05-25T16:44:23.906Z,8.65
2023-05-25T16:47:09.394Z,7.97
2023-05-25T16:49:54.730Z,7.90
2023-05-25T16:52:40.687Z,7.82
2023-05-25T16:55:25.804Z,7.30
2023-05-25T16:58:11.098Z,8.20
2023-05-25T17:00:56.303Z,7.60
2023-05-25T17:03:41.833Z,7.68
2023-05-25T17:06:27.459Z,7.57
2023-05-25T17:09:12.816Z,7.57
2023-05-25T17:11:59.665Z,7.88
2023-05-25T17:14:44.917Z,8.07
2023-05-25T17:17:30.386Z,7.85
2023-05-25T17:20:15.926Z,7.10
2023-05-25T17:23:01.403Z,7.35
2023-05-25T17:25:47.267Z,7.95
2023-05-25T17:28:33.225Z,7.20
2023-05-25T17:31:18.852Z,7.07
2023-05-25T17:34:04.186Z,7.30
2023-05-25T17:36:50.469Z,7.80
2023-05-25T17:39:36.257Z,7.10
2023-05-25T17:42:21.584Z,7.43
2023-05-25T17:45:11.464Z,6.95
2023-05-25T17:47:57.382Z,7.85
2023-05-25T17:50:43.379Z,7.15
2023-05-25T17:53:28.836Z,7.30
2023-05-25T17:56:14.278Z,6.80
2023-05-25T17:58:59.496Z,7.30
2023-05-25T18:01:44.824Z,7.43
2023-05-25T18:04:29.950Z,7.05
2023-05-25T18:07:15.276Z,7.22
2023-05-25T18:10:00.828Z,7.15
2023-05-25T18:12:49.150Z,7.03
2023-05-25T18:15:34.856Z,7.78
2023-05-25T18:18:23.182Z,7.90
2023-05-25T18:21:08.743Z,7.47
2023-05-25T18:23:54.085Z,7.65
2023-05-25T18:26:41.601Z,8.18
2023-05-25T18:29:26.914Z,7.63
2023-05-25T18:32:12.228Z,8.25
2023-05-25T18:34:57.584Z,7.85
2023-05-25T18:37:43.344Z,7.50
2023-05-25T18:40:28.639Z,7.53
2023-05-25T18:43:13.909Z,7.53
2023-05-25T18:45:59.259Z,7.93
2023-05-25T18:48:44.697Z,7.32
2023-05-25T18:51:30.061Z,8.23
2023-05-25T18:54:15.425Z,8.45
2023-05-25T18:57:01.597Z,7.35
2023-05-25T18:59:47.282Z,16.30
2023-05-25T19:02:32.553Z,14.85
2023-05-25T19:05:19.895Z,10.00
2023-05-25T19:08:05.742Z,10.73
2023-05-25T19:10:51.320Z,11.15
2023-05-25T19:13:37.005Z,10.90
2023-05-25T19:16:22.764Z,10.82
2023-05-25T19:19:08.238Z,10.32
2023-05-25T19:21:53.961Z,10.45
2023-05-25T19:24:42.716Z,12.48
2023-05-25T19:27:29.815Z,11.30
2023-05-25T19:30:15.427Z,10.57
2023-05-25T19:33:00.677Z,11.65
2023-05-25T19:35:46.366Z,11.90
2023-05-25T19:38:41.340Z,11.27
2023-05-25T19:41:27.776Z,10.55
2023-05-25T19:44:13.266Z,11.73
2023-05-25T19:46:59.621Z,11.50
2023-05-25T19:49:45.885Z,12.02
2023-05-25T19:52:31.399Z,11.63
2023-05-25T19:55:16.938Z,12.07
2023-05-25T19:58:02.216Z,12.48
2023-05-25T20:00:47.788Z,12.43
2023-05-25T20:03:33.787Z,11.68
2023-05-25T20:06:19.275Z,12.75
2023-05-25T20:09:05.161Z,13.30
2023-05-25T20:11:50.554Z,13.23
2023-05-25T20:14:35.768Z,12.35
2023-05-25T20:17:21.588Z,13.38
2023-05-25T20:20:07.550Z,13.07
2023-05-25T20:22:52.981Z,13.38
2023-05-25T20:25:38.339Z,13.13
2023-05-25T20:28:23.673Z,14.30
2023-05-25T20:31:09.510Z,15.77
2023-05-25T20:33:55.174Z,17.90
2023-05-25T20:36:40.574Z,17.42
2023-05-25T20:39:26.253Z,17.33
2023-05-25T20:42:11.804Z,17.27
2023-05-25T20:44:57.258Z,17.95
2023-05-25T20:47:42.597Z,18.27
2023-05-25T20:50:28.865Z,19.85
2023-05-25T20:53:14.353Z,18.58
2023-05-25T20:56:01.620Z,19.17
2023-05-25T20:58:47.335Z,19.75
2023-05-25T21:01:32.980Z,19.85
2023-05-25T21:04:19.330Z,19.58
2023-05-25T21:07:05.587Z,19.17
2023-05-25T21:09:51.118Z,18.92
2023-05-25T21:12:36.422Z,20.02
2023-05-25T21:15:21.643Z,19.88
2023-05-25T21:18:07.016Z,19.55
2023-05-25T21:20:52.813Z,20.55
2023-05-25T21:23:38.173Z,19.30
2023-05-25T21:26:23.564Z,20.40
2023-05-25T21:29:08.770Z,20.60
2023-05-25T21:31:54.608Z,20.73
2023-05-25T21:34:40.837Z,21.77
2023-05-25T21:37:26.224Z,20.88
2023-05-25T21:40:11.862Z,21.15
2023-05-25T21:42:58.064Z,20.48
2023-05-25T21:45:43.877Z,20.75
2023-05-25T21:48:29.441Z,20.25
2023-05-25T21:51:14.743Z,20.45
2023-05-25T21:54:00.450Z,21.52
2023-05-25T21:56:46.293Z,21.25
2023-05-25T21:59:31.587Z,21.23
2023-05-25T22:02:17.161Z,21.83
2023-05-25T22:05:02.755Z,21.17
2023-05-25T22:07:48.164Z,21.60
2023-05-25T22:10:33.551Z,22.65
2023-05-25T22:13:18.857Z,20.83
2023-05-25T22:16:04.615Z,19.73
2023-05-25T22:18:49.804Z,19.92
2023-05-25T22:21:35.342Z,19.88
2023-05-25T22:24:20.821Z,21.33
2023-05-25T22:27:06.376Z,20.73
2023-05-25T22:29:51.797Z,21.23
2023-05-25T22:32:37.515Z,21.75
2023-05-25T22:35:23.380Z,21.50
2023-05-25T22:38:08.817Z,22.92
2023-05-25T22:40:54.488Z,20.67
2023-05-25T22:43:39.620Z,21.02
2023-05-25T22:46:25.331Z,21.40
2023-05-25T22:49:11.119Z,20.40
2023-05-25T22:51:56.515Z,21.52
2023-05-25T22:54:41.948Z,20.27
2023-05-25T22:57:27.169Z,20.42
2023-05-25T23:00:12.650Z,20.20
2023-05-25T23:02:59.429Z,20.42
2023-05-25T23:05:46.695Z,20.85
2023-05-25T23:08:32.541Z,19.88
2023-05-25T23:11:18.077Z,19.73
2023-05-25T23:14:03.210Z,19.52
2023-05-25T23:16:48.744Z,19.45
2023-05-25T23:19:34.128Z,19.20
2023-05-25T23:22:19.550Z,18.02
2023-05-25T23:25:05.476Z,18.45
2023-05-25T23:27:50.673Z,17.42
2023-05-25T23:30:35.975Z,18.38
2023-05-25T23:33:22.061Z,17.92
2023-05-25T23:36:08.330Z,19.08
2023-05-25T23:38:53.603Z,19.50
2023-05-25T23:41:38.917Z,18.77
2023-05-25T23:44:24.753Z,17.65
2023-05-25T23:47:09.853Z,17.27
2023-05-25T23:49:55.157Z,18.85
2023-05-25T23:52:41.418Z,17.52
2023-05-25T23:55:27.263Z,17.60
2023-05-25T23:58:12.689Z,18.63
